sensor_id;sensor_type;location;lat;lon;timestamp;P1;durP1;ratioP1;P2;durP2;ratioP2
32198;SDS011;19221;42.656;21.156;2023-05-10T00:00:57;7.10;;;3.80;;
32198;SDS011;19221;42.656;21.156;2023-05-10T00:03:22;6.65;;;4.70;;
32198;SDS011;19221;42.656;21.156;2023-05-10T00:05:48;7.43;;;4.18;;
32198;SDS011;19221;42.656;21.156;2023-05-10T00:08:13;8.27;;;4.60;;
32198;SDS011;19221;42.656;21.156;2023-05-10T00:10:39;7.38;;;4.40;;
32198;SDS011;19221;42.656;21.156;2023-05-10T00:13:06;5.72;;;4.43;;
32198;SDS011;19221;42.656;21.156;2023-05-10T00:15:31;6.97;;;4.20;;
32198;SDS011;19221;42.656;21.156;2023-05-10T00:17:57;5.97;;;4.07;;
32198;SDS011;19221;42.656;21.156;2023-05-10T00:20:23;4.53;;;3.65;;
32198;SDS011;19221;42.656;21.156;2023-05-10T00:22:49;6.75;;;4.15;;
32198;SDS011;19221;42.656;21.156;2023-05-10T00:25:14;5.97;;;4.25;;
32198;SDS011;19221;42.656;21.156;2023-05-10T00:27:40;6.57;;;4.43;;
32198;SDS011;19221;42.656;21.156;2023-05-10T00:30:06;6.18;;;4.45;;
32198;SDS011;19221;42.656;21.156;2023-05-10T00:32:32;7.03;;;3.80;;
32198;SDS011;19221;42.656;21.156;2023-05-10T00:34:57;4.90;;;3.70;;
32198;SDS011;19221;42.656;21.156;2023-05-10T00:37:23;4.53;;;3.30;;
32198;SDS011;19221;42.656;21.156;2023-05-10T00:39:49;6.65;;;3.40;;
32198;SDS011;19221;42.656;21.156;2023-05-10T00:42:14;7.18;;;5.43;;
32198;SDS011;19221;42.656;21.156;2023-05-10T00:44:40;5.95;;;4.00;;
32198;SDS011;19221;42.656;21.156;2023-05-10T00:47:06;5.00;;;4.00;;
32198;SDS011;19221;42.656;21.156;2023-05-10T00:49:32;5.15;;;3.97;;
32198;SDS011;19221;42.656;21.156;2023-05-10T00:51:57;4.55;;;3.55;;
32198;SDS011;19221;42.656;21.156;2023-05-10T00:54:23;5.35;;;3.60;;
32198;SDS011;19221;42.656;21.156;2023-05-10T00:56:49;4.88;;;3.60;;
32198;SDS011;19221;42.656;21.156;2023-05-10T00:59:15;5.35;;;3.47;;
32198;SDS011;19221;42.656;21.156;2023-05-10T01:01:42;6.53;;;3.33;;
32198;SDS011;19221;42.656;21.156;2023-05-10T01:04:08;6.07;;;3.58;;
32198;SDS011;19221;42.656;21.156;2023-05-10T01:06:35;6.32;;;3.78;;
32198;SDS011;19221;42.656;21.156;2023-05-10T01:09:01;4.38;;;3.50;;
32198;SDS011;19221;42.656;21.156;2023-05-10T01:11:26;5.18;;;3.70;;
32198;SDS011;19221;42.656;21.156;2023-05-10T01:13:54;10.88;;;4.28;;
32198;SDS011;19221;42.656;21.156;2023-05-10T01:16:20;5.68;;;3.80;;
32198;SDS011;19221;42.656;21.156;2023-05-10T01:18:46;6.35;;;4.28;;
32198;SDS011;19221;42.656;21.156;2023-05-10T01:21:30;4.40;;;3.20;;
32198;SDS011;19221;42.656;21.156;2023-05-10T01:32:00;4.13;;;2.90;;
32198;SDS011;19221;42.656;21.156;2023-05-10T01:34:30;6.38;;;3.42;;
32198;SDS011;19221;42.656;21.156;2023-05-10T01:37:10;3.88;;;3.05;;
32198;SDS011;19221;42.656;21.156;2023-05-10T01:39:50;4.28;;;3.40;;
32198;SDS011;19221;42.656;21.156;2023-05-10T01:42:21;4.25;;;2.95;;
32198;SDS011;19221;42.656;21.156;2023-05-10T01:47:14;4.55;;;3.22;;
32198;SDS011;19221;42.656;21.156;2023-05-10T01:49:42;3.53;;;2.92;;
32198;SDS011;19221;42.656;21.156;2023-05-10T01:52:12;3.75;;;3.10;;
32198;SDS011;19221;42.656;21.156;2023-05-10T01:54:41;4.68;;;3.08;;
32198;SDS011;19221;42.656;21.156;2023-05-10T01:57:08;4.15;;;3.35;;
32198;SDS011;19221;42.656;21.156;2023-05-10T01:59:35;4.65;;;3.45;;
32198;SDS011;19221;42.656;21.156;2023-05-10T02:02:02;4.72;;;3.50;;
32198;SDS011;19221;42.656;21.156;2023-05-10T02:04:28;4.53;;;3.45;;
32198;SDS011;19221;42.656;21.156;2023-05-10T02:06:54;6.38;;;3.40;;
32198;SDS011;19221;42.656;21.156;2023-05-10T02:09:20;5.22;;;2.72;;
32198;SDS011;19221;42.656;21.156;2023-05-10T02:11:48;3.83;;;3.00;;
32198;SDS011;19221;42.656;21.156;2023-05-10T02:14:14;5.45;;;3.10;;
32198;SDS011;19221;42.656;21.156;2023-05-10T02:16:41;7.13;;;4.00;;
32198;SDS011;19221;42.656;21.156;2023-05-10T02:19:07;4.38;;;2.95;;
32198;SDS011;19221;42.656;21.156;2023-05-10T02:21:34;3.92;;;3.22;;
32198;SDS011;19221;42.656;21.156;2023-05-10T02:24:01;5.93;;;3.13;;
32198;SDS011;19221;42.656;21.156;2023-05-10T02:26:27;4.18;;;3.17;;
32198;SDS011;19221;42.656;21.156;2023-05-10T02:28:54;3.88;;;2.70;;
32198;SDS011;19221;42.656;21.156;2023-05-10T02:31:21;3.70;;;2.88;;
32198;SDS011;19221;42.656;21.156;2023-05-10T02:33:48;4.15;;;3.33;;
32198;SDS011;19221;42.656;21.156;2023-05-10T02:36:15;6.38;;;3.25;;
32198;SDS011;19221;42.656;21.156;2023-05-10T02:38:41;5.28;;;3.50;;
32198;SDS011;19221;42.656;21.156;2023-05-10T02:41:07;3.63;;;3.00;;
32198;SDS011;19221;42.656;21.156;2023-05-10T02:43:34;6.40;;;3.13;;
32198;SDS011;19221;42.656;21.156;2023-05-10T02:46:00;4.90;;;3.90;;
32198;SDS011;19221;42.656;21.156;2023-05-10T02:48:26;5.32;;;4.18;;
32198;SDS011;19221;42.656;21.156;2023-05-10T02:50:52;5.78;;;4.38;;
32198;SDS011;19221;42.656;21.156;2023-05-10T02:53:25;6.22;;;4.30;;
32198;SDS011;19221;42.656;21.156;2023-05-10T02:55:54;6.20;;;4.18;;
32198;SDS011;19221;42.656;21.156;2023-05-10T02:58:22;4.53;;;3.45;;
32198;SDS011;19221;42.656;21.156;2023-05-10T03:00:47;6.20;;;4.15;;
32198;SDS011;19221;42.656;21.156;2023-05-10T03:03:13;4.43;;;3.47;;
32198;SDS011;19221;42.656;21.156;2023-05-10T03:05:38;4.80;;;3.25;;
32198;SDS011;19221;42.656;21.156;2023-05-10T03:08:04;5.03;;;2.80;;
32198;SDS011;19221;42.656;21.156;2023-05-10T03:10:31;3.35;;;3.05;;
32198;SDS011;19221;42.656;21.156;2023-05-10T03:18:01;5.38;;;2.90;;
32198;SDS011;19221;42.656;21.156;2023-05-10T03:20:29;4.65;;;3.58;;
32198;SDS011;19221;42.656;21.156;2023-05-10T03:23:04;5.80;;;3.10;;
32198;SDS011;19221;42.656;21.156;2023-05-10T03:25:32;6.40;;;3.85;;
32198;SDS011;19221;42.656;21.156;2023-05-10T03:27:59;8.07;;;3.45;;
32198;SDS011;19221;42.656;21.156;2023-05-10T03:30:26;4.40;;;3.20;;
32198;SDS011;19221;42.656;21.156;2023-05-10T03:32:52;5.05;;;4.10;;
32198;SDS011;19221;42.656;21.156;2023-05-10T03:35:17;8.25;;;5.93;;
32198;SDS011;19221;42.656;21.156;2023-05-10T03:37:43;10.05;;;6.95;;
32198;SDS011;19221;42.656;21.156;2023-05-10T03:40:09;7.70;;;6.32;;
32198;SDS011;19221;42.656;21.156;2023-05-10T03:42:35;7.55;;;5.80;;
32198;SDS011;19221;42.656;21.156;2023-05-10T03:45:01;6.85;;;5.20;;
32198;SDS011;19221;42.656;21.156;2023-05-10T03:47:26;5.68;;;3.95;;
32198;SDS011;19221;42.656;21.156;2023-05-10T03:49:52;7.20;;;4.32;;
32198;SDS011;19221;42.656;21.156;2023-05-10T03:52:18;6.72;;;4.07;;
32198;SDS011;19221;42.656;21.156;2023-05-10T03:54:43;7.03;;;3.88;;
32198;SDS011;19221;42.656;21.156;2023-05-10T03:57:11;5.68;;;3.72;;
32198;SDS011;19221;42.656;21.156;2023-05-10T03:59:38;7.53;;;3.65;;
32198;SDS011;19221;42.656;21.156;2023-05-10T04:02:04;6.13;;;3.65;;
32198;SDS011;19221;42.656;21.156;2023-05-10T04:04:29;4.20;;;3.25;;
32198;SDS011;19221;42.656;21.156;2023-05-10T04:06:55;6.47;;;3.72;;
32198;SDS011;19221;42.656;21.156;2023-05-10T04:09:21;9.23;;;3.90;;
32198;SDS011;19221;42.656;21.156;2023-05-10T04:11:46;11.52;;;4.35;;
32198;SDS011;19221;42.656;21.156;2023-05-10T04:14:12;5.22;;;3.33;;
32198;SDS011;19221;42.656;21.156;2023-05-10T04:16:37;7.10;;;4.00;;
32198;SDS011;19221;42.656;21.156;2023-05-10T04:19:03;5.00;;;3.55;;
32198;SDS011;19221;42.656;21.156;2023-05-10T04:21:29;4.85;;;3.80;;
32198;SDS011;19221;42.656;21.156;2023-05-10T04:23:55;6.65;;;3.60;;
32198;SDS011;19221;42.656;21.156;2023-05-10T04:26:21;3.58;;;3.28;;
32198;SDS011;19221;42.656;21.156;2023-05-10T04:28:47;5.10;;;3.63;;
32198;SDS011;19221;42.656;21.156;2023-05-10T04:31:13;7.18;;;4.07;;
32198;SDS011;19221;42.656;21.156;2023-05-10T04:33:38;5.40;;;4.63;;
32198;SDS011;19221;42.656;21.156;2023-05-10T04:36:04;9.85;;;6.95;;
32198;SDS011;19221;42.656;21.156;2023-05-10T04:38:30;13.32;;;8.13;;
32198;SDS011;19221;42.656;21.156;2023-05-10T04:41:05;10.27;;;6.38;;
32198;SDS011;19221;42.656;21.156;2023-05-10T04:43:31;7.82;;;5.22;;
32198;SDS011;19221;42.656;21.156;2023-05-10T04:45:57;6.05;;;4.78;;
32198;SDS011;19221;42.656;21.156;2023-05-10T04:48:22;5.78;;;3.83;;
32198;SDS011;19221;42.656;21.156;2023-05-10T04:50:48;8.82;;;4.47;;
32198;SDS011;19221;42.656;21.156;2023-05-10T04:53:14;8.88;;;4.63;;
32198;SDS011;19221;42.656;21.156;2023-05-10T04:55:39;6.43;;;4.30;;
32198;SDS011;19221;42.656;21.156;2023-05-10T04:58:05;5.75;;;4.20;;
32198;SDS011;19221;42.656;21.156;2023-05-10T05:00:31;7.40;;;4.80;;
32198;SDS011;19221;42.656;21.156;2023-05-10T05:02:57;5.05;;;4.05;;
32198;SDS011;19221;42.656;21.156;2023-05-10T05:05:22;10.73;;;4.38;;
32198;SDS011;19221;42.656;21.156;2023-05-10T05:07:48;7.47;;;4.78;;
32198;SDS011;19221;42.656;21.156;2023-05-10T05:10:14;9.20;;;4.97;;
32198;SDS011;19221;42.656;21.156;2023-05-10T05:12:39;9.00;;;5.70;;
32198;SDS011;19221;42.656;21.156;2023-05-10T05:15:07;9.80;;;5.45;;
32198;SDS011;19221;42.656;21.156;2023-05-10T05:17:34;9.68;;;6.65;;
32198;SDS011;19221;42.656;21.156;2023-05-10T05:20:00;14.63;;;7.65;;
32198;SDS011;19221;42.656;21.156;2023-05-10T05:22:25;18.73;;;8.82;;
32198;SDS011;19221;42.656;21.156;2023-05-10T05:24:57;15.18;;;8.75;;
32198;SDS011;19221;42.656;21.156;2023-05-10T05:27:23;12.32;;;7.13;;
32198;SDS011;19221;42.656;21.156;2023-05-10T05:29:54;11.90;;;6.70;;
32198;SDS011;19221;42.656;21.156;2023-05-10T05:32:20;14.40;;;6.78;;
32198;SDS011;19221;42.656;21.156;2023-05-10T05:34:48;10.75;;;5.97;;
32198;SDS011;19221;42.656;21.156;2023-05-10T05:37:15;18.67;;;6.88;;
32198;SDS011;19221;42.656;21.156;2023-05-10T05:39:41;8.07;;;6.20;;
32198;SDS011;19221;42.656;21.156;2023-05-10T05:42:08;15.05;;;7.32;;
32198;SDS011;19221;42.656;21.156;2023-05-10T05:44:34;13.55;;;7.25;;
32198;SDS011;19221;42.656;21.156;2023-05-10T05:46:59;12.82;;;7.53;;
32198;SDS011;19221;42.656;21.156;2023-05-10T05:49:25;10.27;;;7.40;;
32198;SDS011;19221;42.656;21.156;2023-05-10T05:51:51;11.52;;;7.07;;
32198;SDS011;19221;42.656;21.156;2023-05-10T05:54:16;12.27;;;7.53;;
32198;SDS011;19221;42.656;21.156;2023-05-10T05:56:42;9.70;;;7.45;;
32198;SDS011;19221;42.656;21.156;2023-05-10T05:59:09;13.75;;;7.15;;
32198;SDS011;19221;42.656;21.156;2023-05-10T06:01:35;13.45;;;6.88;;
32198;SDS011;19221;42.656;21.156;2023-05-10T06:04:01;10.02;;;6.97;;
32198;SDS011;19221;42.656;21.156;2023-05-10T06:06:26;16.33;;;6.70;;
32198;SDS011;19221;42.656;21.156;2023-05-10T06:08:53;10.38;;;6.25;;
32198;SDS011;19221;42.656;21.156;2023-05-10T06:11:18;12.05;;;7.80;;
32198;SDS011;19221;42.656;21.156;2023-05-10T06:13:45;9.38;;;4.70;;
32198;SDS011;19221;42.656;21.156;2023-05-10T06:16:12;12.23;;;7.20;;
32198;SDS011;19221;42.656;21.156;2023-05-10T06:18:39;11.85;;;6.47;;
32198;SDS011;19221;42.656;21.156;2023-05-10T06:21:04;11.60;;;6.53;;
32198;SDS011;19221;42.656;21.156;2023-05-10T06:23:30;14.48;;;6.72;;
32198;SDS011;19221;42.656;21.156;2023-05-10T06:25:56;16.52;;;7.10;;
32198;SDS011;19221;42.656;21.156;2023-05-10T06:28:21;15.18;;;7.20;;
32198;SDS011;19221;42.656;21.156;2023-05-10T06:30:47;13.65;;;6.95;;
32198;SDS011;19221;42.656;21.156;2023-05-10T06:33:13;16.27;;;6.93;;
32198;SDS011;19221;42.656;21.156;2023-05-10T06:35:39;21.58;;;8.68;;
32198;SDS011;19221;42.656;21.156;2023-05-10T06:38:04;12.52;;;7.13;;
32198;SDS011;19221;42.656;21.156;2023-05-10T06:40:30;15.15;;;8.02;;
32198;SDS011;19221;42.656;21.156;2023-05-10T06:42:56;16.23;;;8.80;;
32198;SDS011;19221;42.656;21.156;2023-05-10T06:45:21;18.33;;;7.57;;
32198;SDS011;19221;42.656;21.156;2023-05-10T06:47:47;11.13;;;7.70;;
32198;SDS011;19221;42.656;21.156;2023-05-10T06:50:13;12.15;;;7.30;;
32198;SDS011;19221;42.656;21.156;2023-05-10T06:52:38;14.40;;;7.20;;
32198;SDS011;19221;42.656;21.156;2023-05-10T06:55:04;13.85;;;7.55;;
32198;SDS011;19221;42.656;21.156;2023-05-10T06:57:30;24.30;;;8.60;;
32198;SDS011;19221;42.656;21.156;2023-05-10T06:59:56;25.17;;;9.32;;
32198;SDS011;19221;42.656;21.156;2023-05-10T07:02:22;17.30;;;8.77;;
32198;SDS011;19221;42.656;21.156;2023-05-10T07:04:48;16.92;;;8.55;;
32198;SDS011;19221;42.656;21.156;2023-05-10T07:07:14;23.50;;;8.05;;
32198;SDS011;19221;42.656;21.156;2023-05-10T07:09:40;19.75;;;6.93;;
32198;SDS011;19221;42.656;21.156;2023-05-10T07:12:06;14.13;;;5.95;;
32198;SDS011;19221;42.656;21.156;2023-05-10T07:14:31;16.92;;;6.88;;
32198;SDS011;19221;42.656;21.156;2023-05-10T07:16:57;11.32;;;4.82;;
32198;SDS011;19221;42.656;21.156;2023-05-10T07:19:23;10.23;;;3.92;;
32198;SDS011;19221;42.656;21.156;2023-05-10T07:21:49;16.58;;;4.60;;
32198;SDS011;19221;42.656;21.156;2023-05-10T07:24:15;11.48;;;4.80;;
32198;SDS011;19221;42.656;21.156;2023-05-10T07:26:41;10.52;;;6.50;;
32198;SDS011;19221;42.656;21.156;2023-05-10T07:29:06;11.95;;;5.32;;
32198;SDS011;19221;42.656;21.156;2023-05-10T07:31:32;7.35;;;3.97;;
32198;SDS011;19221;42.656;21.156;2023-05-10T07:33:58;9.30;;;4.15;;
32198;SDS011;19221;42.656;21.156;2023-05-10T07:36:23;14.30;;;5.07;;
32198;SDS011;19221;42.656;21.156;2023-05-10T07:38:50;9.90;;;4.07;;
32198;SDS011;19221;42.656;21.156;2023-05-10T07:41:16;23.90;;;8.38;;
32198;SDS011;19221;42.656;21.156;2023-05-10T07:43:42;12.77;;;4.70;;
32198;SDS011;19221;42.656;21.156;2023-05-10T07:46:07;14.70;;;6.38;;
32198;SDS011;19221;42.656;21.156;2023-05-10T07:48:36;15.38;;;5.07;;
32198;SDS011;19221;42.656;21.156;2023-05-10T07:51:02;8.25;;;3.80;;
32198;SDS011;19221;42.656;21.156;2023-05-10T07:53:27;9.27;;;3.45;;
32198;SDS011;19221;42.656;21.156;2023-05-10T07:55:54;3.55;;;2.17;;
32198;SDS011;19221;42.656;21.156;2023-05-10T07:58:22;7.60;;;3.42;;
32198;SDS011;19221;42.656;21.156;2023-05-10T08:00:48;32.53;;;6.68;;
32198;SDS011;19221;42.656;21.156;2023-05-10T08:03:14;9.90;;;4.40;;
32198;SDS011;19221;42.656;21.156;2023-05-10T08:05:40;23.85;;;5.75;;
32198;SDS011;19221;42.656;21.156;2023-05-10T08:08:06;20.85;;;5.38;;
32198;SDS011;19221;42.656;21.156;2023-05-10T08:10:32;3.28;;;2.50;;
32198;SDS011;19221;42.656;21.156;2023-05-10T08:12:57;7.32;;;3.67;;
32198;SDS011;19221;42.656;21.156;2023-05-10T08:15:24;10.77;;;3.70;;
32198;SDS011;19221;42.656;21.156;2023-05-10T08:17:51;5.28;;;2.75;;
32198;SDS011;19221;42.656;21.156;2023-05-10T08:20:16;3.28;;;2.75;;
32198;SDS011;19221;42.656;21.156;2023-05-10T08:22:47;7.10;;;2.83;;
32198;SDS011;19221;42.656;21.156;2023-05-10T08:25:13;14.13;;;5.20;;
32198;SDS011;19221;42.656;21.156;2023-05-10T08:27:38;7.30;;;2.80;;
32198;SDS011;19221;42.656;21.156;2023-05-10T08:30:04;6.85;;;4.13;;
32198;SDS011;19221;42.656;21.156;2023-05-10T08:32:30;9.15;;;2.80;;
32198;SDS011;19221;42.656;21.156;2023-05-10T08:34:56;5.65;;;2.95;;
32198;SDS011;19221;42.656;21.156;2023-05-10T08:37:23;14.93;;;3.60;;
32198;SDS011;19221;42.656;21.156;2023-05-10T08:39:48;5.55;;;2.75;;
32198;SDS011;19221;42.656;21.156;2023-05-10T08:42:15;4.53;;;3.03;;
32198;SDS011;19221;42.656;21.156;2023-05-10T08:44:42;7.00;;;3.70;;
32198;SDS011;19221;42.656;21.156;2023-05-10T08:47:07;10.38;;;4.15;;
32198;SDS011;19221;42.656;21.156;2023-05-10T08:49:34;4.63;;;2.50;;
32198;SDS011;19221;42.656;21.156;2023-05-10T08:52:01;7.78;;;2.80;;
32198;SDS011;19221;42.656;21.156;2023-05-10T08:54:28;6.18;;;3.50;;
32198;SDS011;19221;42.656;21.156;2023-05-10T08:56:56;8.88;;;3.30;;
32198;SDS011;19221;42.656;21.156;2023-05-10T08:59:23;9.95;;;3.58;;
32198;SDS011;19221;42.656;21.156;2023-05-10T09:01:49;8.23;;;3.10;;
32198;SDS011;19221;42.656;21.156;2023-05-10T09:04:16;4.60;;;3.58;;
32198;SDS011;19221;42.656;21.156;2023-05-10T09:06:42;11.30;;;4.82;;
32198;SDS011;19221;42.656;21.156;2023-05-10T09:09:07;6.85;;;3.33;;
32198;SDS011;19221;42.656;21.156;2023-05-10T09:11:33;4.97;;;2.50;;
32198;SDS011;19221;42.656;21.156;2023-05-10T09:13:59;5.60;;;3.78;;
32198;SDS011;19221;42.656;21.156;2023-05-10T09:16:26;16.67;;;4.50;;
32198;SDS011;19221;42.656;21.156;2023-05-10T09:18:51;6.30;;;2.85;;
32198;SDS011;19221;42.656;21.156;2023-05-10T09:21:18;11.38;;;3.60;;
32198;SDS011;19221;42.656;21.156;2023-05-10T09:23:45;10.77;;;4.13;;
32198;SDS011;19221;42.656;21.156;2023-05-10T09:26:12;8.40;;;3.20;;
32198;SDS011;19221;42.656;21.156;2023-05-10T09:31:16;16.05;;;7.47;;
32198;SDS011;19221;42.656;21.156;2023-05-10T09:33:44;7.45;;;3.65;;
32198;SDS011;19221;42.656;21.156;2023-05-10T09:36:11;8.75;;;5.00;;
32198;SDS011;19221;42.656;21.156;2023-05-10T09:41:18;4.38;;;2.42;;
32198;SDS011;19221;42.656;21.156;2023-05-10T09:43:44;9.27;;;4.28;;
32198;SDS011;19221;42.656;21.156;2023-05-10T09:46:10;8.65;;;3.40;;
32198;SDS011;19221;42.656;21.156;2023-05-10T09:48:46;8.02;;;3.35;;
32198;SDS011;19221;42.656;21.156;2023-05-10T09:51:34;11.07;;;3.17;;
32198;SDS011;19221;42.656;21.156;2023-05-10T09:54:12;8.38;;;4.07;;
32198;SDS011;19221;42.656;21.156;2023-05-10T09:56:38;7.78;;;4.22;;
32198;SDS011;19221;42.656;21.156;2023-05-10T09:59:06;4.47;;;3.00;;
32198;SDS011;19221;42.656;21.156;2023-05-10T10:01:32;13.05;;;5.75;;
32198;SDS011;19221;42.656;21.156;2023-05-10T10:03:58;10.15;;;4.97;;
32198;SDS011;19221;42.656;21.156;2023-05-10T10:06:24;11.88;;;5.32;;
32198;SDS011;19221;42.656;21.156;2023-05-10T10:08:50;9.20;;;3.42;;
32198;SDS011;19221;42.656;21.156;2023-05-10T10:11:16;9.95;;;4.10;;
32198;SDS011;19221;42.656;21.156;2023-05-10T10:13:42;9.88;;;5.03;;
32198;SDS011;19221;42.656;21.156;2023-05-10T10:16:08;6.05;;;3.42;;
32198;SDS011;19221;42.656;21.156;2023-05-10T10:18:35;8.77;;;4.68;;
32198;SDS011;19221;42.656;21.156;2023-05-10T10:21:07;7.63;;;4.10;;
32198;SDS011;19221;42.656;21.156;2023-05-10T10:23:34;9.98;;;4.85;;
32198;SDS011;19221;42.656;21.156;2023-05-10T10:26:00;16.50;;;5.32;;
32198;SDS011;19221;42.656;21.156;2023-05-10T10:28:32;11.05;;;5.30;;
32198;SDS011;19221;42.656;21.156;2023-05-10T10:31:02;23.10;;;8.90;;
32198;SDS011;19221;42.656;21.156;2023-05-10T10:33:43;18.60;;;7.45;;
32198;SDS011;19221;42.656;21.156;2023-05-10T10:36:15;9.65;;;5.25;;
32198;SDS011;19221;42.656;21.156;2023-05-10T10:41:09;8.80;;;5.50;;
32198;SDS011;19221;42.656;21.156;2023-05-10T10:43:36;11.60;;;5.32;;
32198;SDS011;19221;42.656;21.156;2023-05-10T10:46:14;16.02;;;6.25;;
32198;SDS011;19221;42.656;21.156;2023-05-10T10:48:41;12.15;;;5.97;;
32198;SDS011;19221;42.656;21.156;2023-05-10T10:51:07;11.52;;;6.28;;
32198;SDS011;19221;42.656;21.156;2023-05-10T10:53:32;16.38;;;6.75;;
32198;SDS011;19221;42.656;21.156;2023-05-10T10:56:02;15.65;;;6.45;;
32198;SDS011;19221;42.656;21.156;2023-05-10T10:58:31;11.63;;;6.07;;
32198;SDS011;19221;42.656;21.156;2023-05-10T11:01:10;8.93;;;5.95;;
32198;SDS011;19221;42.656;21.156;2023-05-10T11:03:37;14.13;;;7.32;;
32198;SDS011;19221;42.656;21.156;2023-05-10T11:06:02;8.43;;;6.32;;
32198;SDS011;19221;42.656;21.156;2023-05-10T11:08:29;15.60;;;7.13;;
32198;SDS011;19221;42.656;21.156;2023-05-10T11:15:55;14.85;;;8.07;;
32198;SDS011;19221;42.656;21.156;2023-05-10T11:18:29;9.95;;;5.95;;
32198;SDS011;19221;42.656;21.156;2023-05-10T11:20:59;12.38;;;6.22;;
32198;SDS011;19221;42.656;21.156;2023-05-10T11:23:32;7.93;;;4.88;;
32198;SDS011;19221;42.656;21.156;2023-05-10T11:25:59;12.90;;;5.85;;
32198;SDS011;19221;42.656;21.156;2023-05-10T11:28:26;16.02;;;6.90;;
32198;SDS011;19221;42.656;21.156;2023-05-10T11:30:52;12.43;;;6.63;;
32198;SDS011;19221;42.656;21.156;2023-05-10T11:33:19;11.10;;;6.03;;
32198;SDS011;19221;42.656;21.156;2023-05-10T11:35:45;12.43;;;6.15;;
32198;SDS011;19221;42.656;21.156;2023-05-10T11:38:11;10.27;;;6.28;;
32198;SDS011;19221;42.656;21.156;2023-05-10T11:40:37;15.70;;;8.57;;
32198;SDS011;19221;42.656;21.156;2023-05-10T11:43:03;9.95;;;6.63;;
32198;SDS011;19221;42.656;21.156;2023-05-10T11:45:32;9.60;;;6.13;;
32198;SDS011;19221;42.656;21.156;2023-05-10T11:47:58;9.70;;;5.95;;
32198;SDS011;19221;42.656;21.156;2023-05-10T11:50:25;9.07;;;6.30;;
32198;SDS011;19221;42.656;21.156;2023-05-10T11:52:51;10.27;;;6.45;;
32198;SDS011;19221;42.656;21.156;2023-05-10T11:55:17;11.70;;;7.03;;
32198;SDS011;19221;42.656;21.156;2023-05-10T11:57:43;8.80;;;5.63;;
32198;SDS011;19221;42.656;21.156;2023-05-10T12:00:11;11.45;;;6.03;;
32198;SDS011;19221;42.656;21.156;2023-05-10T12:02:37;15.57;;;7.15;;
32198;SDS011;19221;42.656;21.156;2023-05-10T12:05:03;13.77;;;7.68;;
32198;SDS011;19221;42.656;21.156;2023-05-10T12:07:30;10.88;;;7.18;;
32198;SDS011;19221;42.656;21.156;2023-05-10T12:10:05;13.55;;;7.88;;
32198;SDS011;19221;42.656;21.156;2023-05-10T12:12:41;10.27;;;7.20;;
32198;SDS011;19221;42.656;21.156;2023-05-10T12:15:17;12.10;;;6.65;;
32198;SDS011;19221;42.656;21.156;2023-05-10T12:17:44;13.40;;;6.97;;
32198;SDS011;19221;42.656;21.156;2023-05-10T12:20:22;14.02;;;6.60;;
32198;SDS011;19221;42.656;21.156;2023-05-10T12:22:50;13.00;;;6.22;;
32198;SDS011;19221;42.656;21.156;2023-05-10T12:25:16;14.90;;;6.88;;
32198;SDS011;19221;42.656;21.156;2023-05-10T12:27:52;12.60;;;6.57;;
32198;SDS011;19221;42.656;21.156;2023-05-10T12:30:19;12.45;;;6.60;;
32198;SDS011;19221;42.656;21.156;2023-05-10T12:32:45;15.93;;;8.15;;
32198;SDS011;19221;42.656;21.156;2023-05-10T12:35:11;14.18;;;7.80;;
32198;SDS011;19221;42.656;21.156;2023-05-10T12:37:36;13.40;;;7.68;;
32198;SDS011;19221;42.656;21.156;2023-05-10T12:40:07;12.60;;;6.90;;
32198;SDS011;19221;42.656;21.156;2023-05-10T12:42:34;15.88;;;7.85;;
32198;SDS011;19221;42.656;21.156;2023-05-10T12:45:01;16.38;;;6.40;;
32198;SDS011;19221;42.656;21.156;2023-05-10T12:47:28;17.83;;;6.65;;
32198;SDS011;19221;42.656;21.156;2023-05-10T12:49:53;9.52;;;6.45;;
32198;SDS011;19221;42.656;21.156;2023-05-10T12:52:19;11.95;;;5.10;;
32198;SDS011;19221;42.656;21.156;2023-05-10T12:54:45;9.18;;;5.63;;
32198;SDS011;19221;42.656;21.156;2023-05-10T12:57:12;12.48;;;6.20;;
32198;SDS011;19221;42.656;21.156;2023-05-10T12:59:38;12.25;;;5.57;;
32198;SDS011;19221;42.656;21.156;2023-05-10T13:02:04;11.13;;;5.75;;
32198;SDS011;19221;42.656;21.156;2023-05-10T13:04:31;17.60;;;5.57;;
32198;SDS011;19221;42.656;21.156;2023-05-10T13:06:57;13.02;;;7.05;;
32198;SDS011;19221;42.656;21.156;2023-05-10T13:09:24;10.82;;;6.13;;
32198;SDS011;19221;42.656;21.156;2023-05-10T13:11:50;12.40;;;7.05;;
32198;SDS011;19221;42.656;21.156;2023-05-10T13:14:16;20.52;;;8.82;;
32198;SDS011;19221;42.656;21.156;2023-05-10T13:16:42;10.50;;;6.35;;
32198;SDS011;19221;42.656;21.156;2023-05-10T13:19:07;16.90;;;6.43;;
32198;SDS011;19221;42.656;21.156;2023-05-10T13:21:33;13.18;;;6.25;;
32198;SDS011;19221;42.656;21.156;2023-05-10T13:23:59;13.48;;;6.03;;
32198;SDS011;19221;42.656;21.156;2023-05-10T13:26:27;8.35;;;5.63;;
32198;SDS011;19221;42.656;21.156;2023-05-10T13:28:53;14.65;;;5.90;;
32198;SDS011;19221;42.656;21.156;2023-05-10T13:31:22;9.00;;;5.65;;
32198;SDS011;19221;42.656;21.156;2023-05-10T13:33:53;11.80;;;6.68;;
32198;SDS011;19221;42.656;21.156;2023-05-10T13:36:19;37.45;;;8.77;;
32198;SDS011;19221;42.656;21.156;2023-05-10T13:38:45;13.88;;;6.72;;
32198;SDS011;19221;42.656;21.156;2023-05-10T13:41:11;10.45;;;6.05;;
32198;SDS011;19221;42.656;21.156;2023-05-10T13:43:36;15.82;;;7.18;;
32198;SDS011;19221;42.656;21.156;2023-05-10T13:46:02;12.80;;;6.32;;
32198;SDS011;19221;42.656;21.156;2023-05-10T13:48:28;10.85;;;6.65;;
32198;SDS011;19221;42.656;21.156;2023-05-10T13:50:54;17.38;;;7.10;;
32198;SDS011;19221;42.656;21.156;2023-05-10T13:53:20;11.95;;;5.57;;
32198;SDS011;19221;42.656;21.156;2023-05-10T13:55:46;13.23;;;6.53;;
32198;SDS011;19221;42.656;21.156;2023-05-10T13:58:12;15.80;;;6.70;;
32198;SDS011;19221;42.656;21.156;2023-05-10T14:00:38;12.90;;;6.07;;
32198;SDS011;19221;42.656;21.156;2023-05-10T14:03:04;17.25;;;5.78;;
32198;SDS011;19221;42.656;21.156;2023-05-10T14:05:30;12.15;;;5.45;;
32198;SDS011;19221;42.656;21.156;2023-05-10T14:07:56;17.80;;;7.63;;
32198;SDS011;19221;42.656;21.156;2023-05-10T14:10:22;12.38;;;5.68;;
32198;SDS011;19221;42.656;21.156;2023-05-10T14:12:48;24.33;;;7.40;;
32198;SDS011;19221;42.656;21.156;2023-05-10T14:15:13;20.95;;;7.15;;
32198;SDS011;19221;42.656;21.156;2023-05-10T14:17:39;8.60;;;4.82;;
32198;SDS011;19221;42.656;21.156;2023-05-10T14:20:05;13.70;;;5.68;;
32198;SDS011;19221;42.656;21.156;2023-05-10T14:22:31;12.52;;;5.68;;
32198;SDS011;19221;42.656;21.156;2023-05-10T14:24:56;12.52;;;5.82;;
32198;SDS011;19221;42.656;21.156;2023-05-10T14:27:23;14.68;;;5.50;;
32198;SDS011;19221;42.656;21.156;2023-05-10T14:29:49;13.38;;;6.18;;
32198;SDS011;19221;42.656;21.156;2023-05-10T14:32:14;11.02;;;6.30;;
32198;SDS011;19221;42.656;21.156;2023-05-10T14:34:40;21.48;;;6.22;;
32198;SDS011;19221;42.656;21.156;2023-05-10T14:37:06;16.35;;;6.47;;
32198;SDS011;19221;42.656;21.156;2023-05-10T14:39:31;11.70;;;6.30;;
32198;SDS011;19221;42.656;21.156;2023-05-10T14:41:58;11.30;;;5.85;;
32198;SDS011;19221;42.656;21.156;2023-05-10T14:44:24;14.73;;;6.60;;
32198;SDS011;19221;42.656;21.156;2023-05-10T14:46:50;10.65;;;6.28;;
32198;SDS011;19221;42.656;21.156;2023-05-10T14:49:16;13.18;;;6.70;;
32198;SDS011;19221;42.656;21.156;2023-05-10T14:51:41;13.38;;;6.43;;
32198;SDS011;19221;42.656;21.156;2023-05-10T14:54:07;8.88;;;5.28;;